Dades de l'estació automàtica Ulldecona - els Valentins
Resum diari
14:30 TU| Temperatura mitjana | 15.7 °C | |
|---|---|---|
| Temperatura màxima | 23.4 °C | 10:37 TU |
| Temperatura mínima | 7.9 °C | 5:02 TU |
| Humitat relativa mitjana | 78% | |
| Precipitació acumulada | 0.8 mm | |
| Ratxa màxima del vent (2 m) | 25.6 km/h - 144º | 11:35 TU |
| Irradiació solar global | 18.7 MJ/m2 | |
El tram horari està expressat en Temps Universal (TU). Cal sumar una hora en horari d'hivern i dues en horari d'estiu per passar a l'hora oficial.
Ulldecona - els Valentins
| Municipi | Ulldecona |
|---|---|
| Comarca | Montsià |
| Altitud | 211 m |
| Data alta | 15.11.1990 |
| Estat actual | Operativa |
| Període TU |
TM °C |
TX °C |
TN °C |
HRM % |
PPT mm |
VVM (2 m) km/h |
DVM (2 m) graus |
VVX (2 m) km/h |
RS W/m2 |
|---|---|---|---|---|---|---|---|---|---|
| 00:00 - 00:30 | 10.7 | 10.9 | 10.5 | 100 | 0.0 | 0.7 | 239 | 2.5 | 0 |
| 00:30 - 01:00 | 10.5 | 10.6 | 10.4 | 100 | 0.0 | 1.1 | 236 | 2.9 | 0 |
| 01:00 - 01:30 | 10.4 | 10.6 | 9.9 | 100 | 0.0 | 0.4 | 221 | 2.5 | 0 |
| 01:30 - 02:00 | 9.7 | 10.0 | 9.5 | 100 | 0.0 | 0.0 | 266 | 1.8 | 0 |
| 02:00 - 02:30 | 9.4 | 9.6 | 9.3 | 100 | 0.0 | 0.0 | 241 | 2.2 | 0 |
| 02:30 - 03:00 | 9.0 | 9.3 | 8.7 | 100 | 0.0 | 0.4 | 288 | 5.0 | 0 |
| 03:00 - 03:30 | 8.8 | 9.0 | 8.4 | 100 | 0.0 | 0.4 | 288 | 5.8 | 0 |
| 03:30 - 04:00 | 8.3 | 8.7 | 8.2 | 100 | 0.0 | 0.4 | 302 | 2.9 | 0 |
| 04:00 - 04:30 | 8.3 | 8.3 | 8.2 | 100 | 0.0 | 0.0 | 303 | 2.2 | 0 |
| 04:30 - 05:00 | 8.1 | 8.3 | 7.9 | 100 | 0.0 | 0.4 | 310 | 3.2 | 2 |
| 05:00 - 05:30 | 8.1 | 8.6 | 7.9 | 100 | 0.1 | 0.7 | 256 | 3.2 | 17 |
| 05:30 - 06:00 | 9.4 | 10.3 | 8.6 | 100 | 0.0 | 0.4 | 289 | 2.9 | 33 |
| 06:00 - 06:30 | 11.3 | 12.1 | 10.4 | 100 | 0.0 | 0.4 | 314 | 3.6 | 59 |
| 06:30 - 07:00 | 13.2 | 14.3 | 12.1 | 95 | 0.0 | 0.4 | 15 | 2.5 | 327 |
| 07:00 - 07:30 | 15.4 | 16.4 | 14.3 | 84 | 0.0 | 1.8 | 114 | 4.3 | 435 |
| 07:30 - 08:00 | 17.8 | 19.1 | 16.1 | 74 | 0.0 | 1.1 | 173 | 4.3 | 491 |
| 08:00 - 08:30 | 19.2 | 19.4 | 18.9 | 64 | 0.0 | 2.5 | 143 | 6.8 | 485 |
| 08:30 - 09:00 | 19.9 | 20.4 | 19.4 | 63 | 0.0 | 4.3 | 135 | 11.2 | 597 |
| 09:00 - 09:30 | 20.3 | 21.0 | 19.9 | 63 | 0.0 | 5.4 | 137 | 15.5 | 730 |
| 09:30 - 10:00 | 21.5 | 22.2 | 20.9 | 57 | 0.0 | 3.2 | 179 | 9.7 | 856 |
| 10:00 - 10:30 | 22.5 | 23.3 | 21.8 | 49 | 0.0 | 4.3 | 154 | 16.9 | 918 |
| 10:30 - 11:00 | 23.0 | 23.4 | 22.5 | 46 | 0.0 | 4.3 | 155 | 13.7 | 891 |
| 11:00 - 11:30 | 22.6 | 23.3 | 21.7 | 49 | 0.0 | 6.1 | 127 | 14.8 | 863 |
| 11:30 - 12:00 | 23.0 | 23.2 | 22.7 | 48 | 0.0 | 9.0 | 118 | 25.6 | 987 |
| 12:00 - 12:30 | 22.7 | 23.2 | 22.2 | 48 | 0.0 | 7.2 | 124 | 21.6 | 575 |
| 12:30 - 13:00 | 22.5 | 23.4 | 22.1 | 47 | 0.0 | 5.4 | 136 | 16.2 | 443 |
| 13:00 - 13:30 | 21.7 | 22.4 | 20.3 | 51 | 0.2 | 6.5 | 126 | 18.4 | 186 |
| 13:30 - 14:00 | 19.6 | 22.1 | 18.1 | 75 | 0.5 | 2.5 | 25 | 9.4 | 590 |
| 14:00 - 14:30 | 22.3 | 22.8 | 22.0 | 59 | 0.0 | 6.1 | 120 | 16.9 | 611 |
| 14:30 - 15:00 | 21.7 | 22.4 | 21.1 | 64 | 0.0 | 5.4 | 119 | 17.6 | 324 |
Les dades en taronja només han passat un control de qualitat automàtic. Resta pendent la seva validació definitiva.